Time;durP1;ratioP1;P1;durP2;ratioP2;P2;SDS_P1;SDS_P2;PMS_P1;PMS_P2;Temp;Humidity;BMP_temperature;BMP_pressure;BME280_temperature;BME280_humidity;BME280_pressure;Samples;Min_cycle;Max_cycle;Signal;HPM_P1;HPM_P2
2021/11/20 00:02:07;;;;;;;0.30;0.30;;;5.00;99.90;;;;;;5010169;28;20110;-73
2021/11/20 00:04:33;;;;;;;2.72;2.47;;;4.90;99.90;;;;;;5013987;28;20101;-73
2021/11/20 00:07:02;;;;;;;0.20;0.20;;;4.90;99.90;;;;;;5015231;28;20038;-73
2021/11/20 00:09:29;;;;;;;0.50;0.50;;;4.60;99.90;;;;;;5014917;28;20029;-74
2021/11/20 00:11:58;;;;;;;0.77;0.77;;;4.30;99.90;;;;;;5013455;28;20034;-73
2021/11/20 00:14:26;;;;;;;0.30;0.30;;;4.10;99.90;;;;;;5014457;28;20052;-73
2021/11/20 00:16:54;;;;;;;0.30;0.30;;;3.90;99.90;;;;;;5014651;28;20065;-73
2021/11/20 00:19:22;;;;;;;0.47;0.47;;;3.80;99.90;;;;;;5014209;28;20034;-74
2021/11/20 00:22:06;;;;;;;0.30;0.30;;;3.90;99.90;;;;;;5013412;28;20022;-73
2021/11/20 00:24:38;;;;;;;0.20;0.20;;;4.00;99.90;;;;;;5014577;28;20040;-73
2021/11/20 00:27:05;;;;;;;;;;;4.00;99.90;;;;;;5015066;28;20025;-74
2021/11/20 00:29:39;;;;;;;0.70;0.70;;;4.00;99.90;;;;;;5029396;28;19933;-73
2021/11/20 00:32:10;;;;;;;0.38;0.38;;;3.80;99.90;;;;;;5012881;28;20421;-73
2021/11/20 00:34:39;;;;;;;0.30;0.30;;;3.70;99.90;;;;;;5014329;28;20022;-73
2021/11/20 00:37:05;;;;;;;0.30;0.30;;;3.80;99.90;;;;;;5013124;28;20033;-74
2021/11/20 00:39:32;;;;;;;0.40;0.40;;;3.80;99.90;;;;;;5012462;28;20030;-74
2021/11/20 00:41:58;;;;;;;2.58;2.38;;;3.80;99.90;;;;;;5013693;28;20033;-73
2021/11/20 00:44:25;;;;;;;0.30;0.30;;;3.90;99.90;;;;;;5014089;28;20088;-73
2021/11/20 00:46:52;;;;;;;0.30;0.30;;;4.10;99.90;;;;;;5013654;28;20036;-73
2021/11/20 00:49:20;;;;;;;0.25;0.25;;;4.20;99.90;;;;;;5013710;28;20022;-73
2021/11/20 00:51:47;;;;;;;0.30;0.30;;;4.30;99.90;;;;;;5013947;28;20121;-73
2021/11/20 00:54:14;;;;;;;0.32;0.32;;;4.40;99.90;;;;;;4995804;28;20472;-74
2021/11/20 00:56:40;;;;;;;0.30;0.30;;;4.60;99.90;;;;;;5028542;28;20065;-73
2021/11/20 00:59:07;;;;;;;0.30;0.30;;;4.60;99.90;;;;;;5013425;28;20018;-73
2021/11/20 01:01:49;;;;;;;0.22;0.22;;;4.50;99.90;;;;;;5013705;28;20064;-74
2021/11/20 01:04:15;;;;;;;0.30;0.30;;;4.30;99.90;;;;;;5013798;28;20041;-73
2021/11/20 01:06:42;;;;;;;0.30;0.30;;;4.20;99.90;;;;;;5011980;28;20038;-73
2021/11/20 01:09:13;;;;;;;0.30;0.30;;;4.20;99.90;;;;;;5011886;28;20026;-73
2021/11/20 01:11:43;;;;;;;0.30;0.30;;;4.10;99.90;;;;;;5013640;28;20018;-73
2021/11/20 01:14:12;;;;;;;0.45;0.40;;;4.10;99.90;;;;;;5013535;28;20036;-73
2021/11/20 01:16:41;;;;;;;0.20;0.20;;;4.20;99.90;;;;;;5013049;28;20029;-73
2021/11/20 01:19:07;;;;;;;0.30;0.30;;;4.10;99.90;;;;;;4996000;28;20022;-73
2021/11/20 01:21:35;;;;;;;0.60;0.60;;;4.00;99.90;;;;;;5013543;28;20084;-73
2021/11/20 01:24:02;;;;;;;0.40;0.40;;;4.00;99.90;;;;;;5011949;28;20025;-74
2021/11/20 01:26:28;;;;;;;0.50;0.50;;;4.00;99.90;;;;;;5011648;28;20127;-73
2021/11/20 01:28:56;;;;;;;0.30;0.30;;;4.00;99.90;;;;;;5013074;28;20313;-73
2021/11/20 01:31:25;;;;;;;0.30;0.30;;;3.90;99.90;;;;;;5013030;28;20033;-74
2021/11/20 01:33:51;;;;;;;0.30;0.30;;;4.00;99.90;;;;;;5011969;28;20494;-73
2021/11/20 01:36:20;;;;;;;0.30;0.30;;;4.00;99.90;;;;;;5011907;28;20049;-73
2021/11/20 01:38:47;;;;;;;0.50;0.50;;;3.90;99.90;;;;;;5013267;28;20413;-74
2021/11/20 01:41:14;;;;;;;0.30;0.30;;;4.00;99.90;;;;;;5011718;28;20026;-73
2021/11/20 01:43:40;;;;;;;0.28;0.28;;;4.10;99.90;;;;;;5011584;28;20029;-73
2021/11/20 01:46:19;;;;;;;0.30;0.30;;;3.90;99.90;;;;;;5012290;28;20029;-73
2021/11/20 01:49:07;;;;;;;0.22;0.22;;;3.90;99.90;;;;;;5011399;28;20493;-73
2021/11/20 01:51:57;;;;;;;0.30;0.30;;;4.00;99.90;;;;;;5012787;28;20026;-74
2021/11/20 01:54:44;;;;;;;0.47;0.47;;;4.00;99.90;;;;;;5012548;28;20034;-73
2021/11/20 01:57:32;;;;;;;0.30;0.30;;;3.90;99.90;;;;;;5012549;28;20018;-74
2021/11/20 01:59:57;;;;;;;1.48;1.38;;;3.90;99.90;;;;;;5012210;28;20053;-73
2021/11/20 02:02:38;;;;;;;0.28;0.28;;;3.60;99.90;;;;;;5012321;28;20100;-73
2021/11/20 02:05:17;;;;;;;0.20;0.20;;;3.70;99.90;;;;;;5012371;28;20482;-74
2021/11/20 02:08:00;;;;;;;0.20;0.20;;;3.70;99.90;;;;;;5012826;28;20105;-73
2021/11/20 02:10:43;;;;;;;0.30;0.30;;;3.70;99.90;;;;;;5011278;28;20061;-74
2021/11/20 02:13:18;;;;;;;0.32;0.32;;;3.70;99.90;;;;;;5011157;28;20018;-74
2021/11/20 02:16:01;;;;;;;0.85;0.85;;;3.80;99.90;;;;;;5010801;28;20132;-74
2021/11/20 02:18:32;;;;;;;0.75;0.75;;;3.70;99.90;;;;;;5011235;28;20145;-74
2021/11/20 02:21:04;;;;;;;0.30;0.30;;;3.80;99.90;;;;;;5010715;28;20460;-73
2021/11/20 02:23:29;;;;;;;0.30;0.30;;;3.80;99.90;;;;;;5011855;28;20077;-73
2021/11/20 02:25:55;;;;;;;3.50;1.42;;;3.70;99.90;;;;;;5010395;28;20034;-73
2021/11/20 02:28:21;;;;;;;0.30;0.30;;;3.70;99.90;;;;;;5012185;28;20030;-74
2021/11/20 02:30:48;;;;;;;0.30;0.30;;;3.70;99.90;;;;;;5010310;28;20112;-73
2021/11/20 02:33:40;;;;;;;0.30;0.30;;;3.70;99.90;;;;;;4994080;28;20077;-74
2021/11/20 02:36:07;;;;;;;2.23;0.60;;;3.70;99.90;;;;;;5008589;28;20080;-73
2021/11/20 02:38:58;;;;;;;0.30;0.30;;;3.60;99.90;;;;;;5010579;28;20030;-73
2021/11/20 02:41:26;;;;;;;2.33;1.02;;;3.50;99.90;;;;;;4993968;28;20229;-73
2021/11/20 02:43:54;;;;;;;2.05;1.77;;;3.60;99.90;;;;;;5011618;28;20036;-73
2021/11/20 02:46:24;;;;;;;0.30;0.30;;;3.70;99.90;;;;;;5011547;28;20145;-73
2021/11/20 02:48:50;;;;;;;0.30;0.30;;;3.80;99.90;;;;;;5012057;28;20025;-73
2021/11/20 02:51:23;;;;;;;0.40;0.40;;;3.80;99.90;;;;;;5011655;28;20052;-73
2021/11/20 02:53:51;;;;;;;0.30;0.30;;;3.60;99.90;;;;;;5010702;28;20072;-73
2021/11/20 02:56:22;;;;;;;0.60;0.60;;;3.50;99.90;;;;;;5010490;28;20096;-73
2021/11/20 02:58:48;;;;;;;0.90;0.90;;;3.50;99.90;;;;;;5010352;28;20022;-73
2021/11/20 03:01:24;;;;;;;2.40;2.20;;;3.50;99.90;;;;;;5011663;28;20089;-73
2021/11/20 03:03:50;;;;;;;0.38;0.38;;;3.30;99.90;;;;;;5012018;28;20057;-74
2021/11/20 03:06:16;;;;;;;0.30;0.30;;;3.40;99.90;;;;;;5011819;28;20525;-73
2021/11/20 03:08:42;;;;;;;5.05;0.90;;;3.50;99.90;;;;;;5010238;28;20029;-73
2021/11/20 03:11:13;;;;;;;0.30;0.30;;;3.50;99.90;;;;;;5011236;28;20477;-73
2021/11/20 03:13:43;;;;;;;0.40;0.40;;;3.60;99.90;;;;;;5010153;28;20022;-73
2021/11/20 03:16:10;;;;;;;1.10;1.10;;;3.60;99.90;;;;;;5009770;28;20018;-73
2021/11/20 03:18:36;;;;;;;0.30;0.30;;;3.60;99.90;;;;;;5011754;28;20034;-73
2021/11/20 03:21:03;;;;;;;0.40;0.40;;;3.70;99.90;;;;;;5011875;28;20030;-74
2021/11/20 03:23:37;;;;;;;0.20;0.20;;;3.80;99.90;;;;;;5011160;28;20026;-73
2021/11/20 03:26:04;;;;;;;0.75;0.75;;;3.70;99.90;;;;;;5010044;28;20022;-73
2021/11/20 03:28:29;;;;;;;0.73;0.73;;;3.80;99.90;;;;;;5010258;28;20022;-73
2021/11/20 03:30:55;;;;;;;0.30;0.30;;;3.90;99.90;;;;;;5011536;28;20030;-73
2021/11/20 03:33:21;;;;;;;0.52;0.52;;;3.90;99.90;;;;;;5010028;28;20025;-74
2021/11/20 03:35:48;;;;;;;0.40;0.40;;;3.70;99.90;;;;;;5011393;28;20026;-73
2021/11/20 03:38:14;;;;;;;0.60;0.60;;;3.60;99.90;;;;;;5012465;28;20029;-74
2021/11/20 03:40:41;;;;;;;0.30;0.30;;;3.60;99.90;;;;;;5013852;28;20389;-73
2021/11/20 03:43:07;;;;;;;0.40;0.40;;;3.50;99.90;;;;;;5014385;28;20468;-74
2021/11/20 03:45:34;;;;;;;0.30;0.30;;;3.50;99.90;;;;;;5014026;28;20509;-74
2021/11/20 03:48:01;;;;;;;0.30;0.30;;;3.60;99.90;;;;;;5014800;28;20029;-74
2021/11/20 03:50:28;;;;;;;0.40;0.40;;;3.60;99.90;;;;;;5013817;28;20036;-73
2021/11/20 03:52:54;;;;;;;1.83;1.73;;;3.80;99.90;;;;;;5015160;28;20033;-73
2021/11/20 03:55:24;;;;;;;0.30;0.30;;;3.70;99.90;;;;;;5015093;28;20029;-74
2021/11/20 03:57:50;;;;;;;0.30;0.30;;;3.50;99.90;;;;;;5015127;28;20532;-74
2021/11/20 04:00:18;;;;;;;0.30;0.30;;;3.50;99.90;;;;;;5014845;28;20018;-73
2021/11/20 04:02:46;;;;;;;0.20;0.20;;;3.40;99.90;;;;;;5014450;28;20048;-74
2021/11/20 04:05:12;;;;;;;0.40;0.40;;;3.30;99.90;;;;;;5013066;28;20112;-73
2021/11/20 04:07:38;;;;;;;0.30;0.30;;;3.10;99.90;;;;;;5014885;28;20477;-73
2021/11/20 04:10:06;;;;;;;0.20;0.20;;;3.00;99.90;;;;;;5014840;28;20114;-74
2021/11/20 04:12:32;;;;;;;0.30;0.30;;;3.00;99.90;;;;;;4996741;28;20026;-74
2021/11/20 04:14:58;;;;;;;0.30;0.30;;;3.00;99.90;;;;;;5014607;28;20501;-74
2021/11/20 04:17:24;;;;;;;0.30;0.30;;;3.10;99.90;;;;;;5013211;28;20034;-73
2021/11/20 04:19:50;;;;;;;0.47;0.47;;;2.90;99.90;;;;;;5014585;28;20031;-73
2021/11/20 04:22:16;;;;;;;0.20;0.20;;;3.00;99.90;;;;;;5012806;28;20116;-73
2021/11/20 04:24:42;;;;;;;0.30;0.30;;;3.10;99.90;;;;;;5013051;28;20029;-74
2021/11/20 04:27:09;;;;;;;0.40;0.40;;;3.10;99.90;;;;;;5014596;28;20033;-73
2021/11/20 04:29:34;;;;;;;0.60;0.60;;;3.40;99.90;;;;;;4996696;28;20021;-73
2021/11/20 04:32:00;;;;;;;0.30;0.30;;;3.30;99.90;;;;;;5013371;28;20553;-73
2021/11/20 04:34:26;;;;;;;0.50;0.50;;;3.50;99.90;;;;;;5014274;28;20041;-73
2021/11/20 04:36:52;;;;;;;0.40;0.40;;;3.40;99.90;;;;;;5013101;28;20030;-73
2021/11/20 04:39:18;;;;;;;0.20;0.20;;;3.50;99.90;;;;;;5014354;28;20021;-73
2021/11/20 04:41:45;;;;;;;0.30;0.30;;;3.50;99.90;;;;;;5012952;28;20029;-73
2021/11/20 04:44:12;;;;;;;0.40;0.40;;;3.40;99.90;;;;;;5014392;28;20393;-73
2021/11/20 04:46:37;;;;;;;0.28;0.28;;;3.40;99.90;;;;;;5014307;28;20109;-73
2021/11/20 04:49:05;;;;;;;0.25;0.25;;;3.30;99.90;;;;;;5013346;28;20152;-73
2021/11/20 04:51:31;;;;;;;0.30;0.30;;;3.20;99.90;;;;;;5013532;28;20026;-74
2021/11/20 04:53:57;;;;;;;0.52;0.52;;;3.30;99.90;;;;;;5012656;28;20025;-74
2021/11/20 04:56:26;;;;;;;0.22;0.22;;;3.30;99.90;;;;;;5013468;28;20028;-74
2021/11/20 04:58:53;;;;;;;0.40;0.40;;;3.30;99.90;;;;;;5012659;28;20030;-73
2021/11/20 05:01:22;;;;;;;0.32;0.32;;;3.30;99.90;;;;;;5013476;28;20033;-74
2021/11/20 05:03:51;;;;;;;0.30;0.30;;;3.30;99.90;;;;;;5028566;28;20132;-74
2021/11/20 05:06:19;;;;;;;0.75;0.75;;;3.40;99.90;;;;;;5028924;28;20124;-73
2021/11/20 05:08:45;;;;;;;0.40;0.40;;;3.50;99.90;;;;;;5013800;28;20382;-73
2021/11/20 05:11:12;;;;;;;0.30;0.30;;;3.50;99.90;;;;;;5013232;28;20113;-73
2021/11/20 05:13:38;;;;;;;0.40;0.40;;;3.50;99.90;;;;;;5011816;28;20022;-73
2021/11/20 05:16:04;;;;;;;0.32;0.32;;;3.40;99.90;;;;;;5013007;28;20053;-73
2021/11/20 05:18:30;;;;;;;0.52;0.52;;;3.30;99.90;;;;;;5011863;28;20022;-73
2021/11/20 05:20:59;;;;;;;0.20;0.20;;;3.30;99.90;;;;;;5013403;28;20049;-73
2021/11/20 05:23:29;;;;;;;0.30;0.30;;;3.20;99.90;;;;;;5013142;28;20033;-73
2021/11/20 05:25:55;;;;;;;0.30;0.30;;;3.10;99.90;;;;;;5013201;28;20029;-73
2021/11/20 05:28:22;;;;;;;1.42;1.42;;;2.90;99.90;;;;;;5013431;28;20048;-73
2021/11/20 05:30:50;;;;;;;0.30;0.30;;;3.00;99.90;;;;;;5013262;28;20403;-73
2021/11/20 05:33:18;;;;;;;0.30;0.30;;;3.00;99.90;;;;;;5013263;28;20359;-73
2021/11/20 05:35:45;;;;;;;0.68;0.68;;;2.90;99.90;;;;;;5013078;28;20022;-73
2021/11/20 05:38:11;;;;;;;0.30;0.30;;;3.00;99.90;;;;;;4995285;28;20060;-73
2021/11/20 05:40:38;;;;;;;0.32;0.32;;;3.00;99.90;;;;;;5012714;28;20030;-73
2021/11/20 05:43:06;;;;;;;12.20;11.10;;;3.00;99.90;;;;;;4995093;28;20102;-73
2021/11/20 05:45:34;;;;;;;2.13;0.75;;;3.20;99.90;;;;;;5011452;28;20036;-73
2021/11/20 05:48:00;;;;;;;1.67;1.02;;;3.10;99.90;;;;;;5012722;28;20536;-74
2021/11/20 05:50:29;;;;;;;0.50;0.50;;;3.10;99.90;;;;;;5012437;28;20034;-73
2021/11/20 05:52:57;;;;;;;0.30;0.30;;;3.10;99.90;;;;;;5012740;28;20022;-73
2021/11/20 05:55:26;;;;;;;0.30;0.30;;;3.10;99.90;;;;;;5012930;28;20486;-73
2021/11/20 05:57:53;;;;;;;0.30;0.30;;;3.10;99.90;;;;;;5013024;28;20028;-73
2021/11/20 06:00:25;;;;;;;0.47;0.47;;;3.20;99.90;;;;;;5012130;28;20022;-73
2021/11/20 06:02:54;;;;;;;0.73;0.73;;;3.40;99.90;;;;;;5028149;28;20018;-74
2021/11/20 06:05:20;;;;;;;0.30;0.30;;;3.30;99.90;;;;;;5011443;28;20021;-73
2021/11/20 06:07:45;;;;;;;2.22;1.75;;;3.20;99.90;;;;;;5012714;28;20105;-73
2021/11/20 06:10:11;;;;;;;0.30;0.30;;;3.30;99.90;;;;;;5010695;28;20497;-74
2021/11/20 06:12:38;;;;;;;0.40;0.40;;;3.30;99.90;;;;;;5010826;28;20030;-74
2021/11/20 06:15:05;;;;;;;0.20;0.20;;;3.40;99.90;;;;;;4994553;28;20075;-73
2021/11/20 06:17:30;;;;;;;0.70;0.70;;;3.30;99.90;;;;;;5016976;23;20038;-72
2021/11/20 06:19:56;;;;;;;0.22;0.22;;;3.20;99.90;;;;;;4992951;28;20488;-73
2021/11/20 06:22:24;;;;;;;0.20;0.20;;;3.40;99.90;;;;;;4992962;28;20081;-73
2021/11/20 06:24:51;;;;;;;0.30;0.30;;;3.70;99.90;;;;;;4992896;28;20050;-73
2021/11/20 06:27:17;;;;;;;1.20;1.10;;;3.90;99.90;;;;;;4991634;28;20034;-73
2021/11/20 06:29:43;;;;;;;0.90;0.90;;;3.90;99.90;;;;;;4991465;28;20026;-73
2021/11/20 06:32:09;;;;;;;0.20;0.20;;;3.90;99.90;;;;;;4991403;28;20035;-73
2021/11/20 06:34:36;;;;;;;0.77;0.70;;;4.00;99.90;;;;;;4992696;28;20106;-73
2021/11/20 06:37:01;;;;;;;0.20;0.20;;;4.00;99.90;;;;;;4992754;28;20061;-73
2021/11/20 06:39:28;;;;;;;1.35;0.88;;;3.80;99.90;;;;;;4992663;28;20030;-73
2021/11/20 06:41:54;;;;;;;0.20;0.20;;;3.80;99.90;;;;;;4992660;28;20433;-73
2021/11/20 06:44:20;;;;;;;0.52;0.52;;;3.70;99.90;;;;;;4992555;28;20053;-73
2021/11/20 06:46:46;;;;;;;0.55;0.55;;;3.60;99.90;;;;;;4992617;28;20018;-73
2021/11/20 06:49:12;;;;;;;0.88;0.88;;;3.70;99.90;;;;;;4992471;28;20096;-74
2021/11/20 06:51:38;;;;;;;0.68;0.68;;;3.90;99.90;;;;;;4991243;28;20058;-73
2021/11/20 06:54:05;;;;;;;0.28;0.28;;;4.10;99.90;;;;;;4992662;28;20027;-74
2021/11/20 06:56:43;;;;;;;3.72;3.40;;;4.00;99.90;;;;;;4991219;28;20033;-73
2021/11/20 06:59:18;;;;;;;0.20;0.20;;;4.00;99.90;;;;;;4992459;28;20022;-74
2021/11/20 07:01:45;;;;;;;0.30;0.30;;;4.20;99.90;;;;;;4991288;28;20045;-73
2021/11/20 07:04:17;;;;;;;0.20;0.20;;;4.20;99.90;;;;;;4991145;28;20036;-73
2021/11/20 07:06:47;;;;;;;0.13;0.13;;;4.00;99.90;;;;;;4992432;28;20478;-74
2021/11/20 07:09:13;;;;;;;0.20;0.20;;;4.10;99.90;;;;;;4992268;28;20034;-77
2021/11/20 07:11:40;;;;;;;0.20;0.20;;;4.20;99.90;;;;;;4990957;28;20030;-73
2021/11/20 07:14:06;;;;;;;0.65;0.65;;;4.30;99.90;;;;;;4995087;28;20023;-76
2021/11/20 07:16:32;;;;;;;1.65;0.52;;;4.20;99.90;;;;;;4995268;28;20390;-74
2021/11/20 07:18:59;;;;;;;0.30;0.30;;;4.20;99.90;;;;;;4996483;28;20057;-73
2021/11/20 07:21:27;;;;;;;0.20;0.20;;;4.30;99.90;;;;;;5011405;28;20037;-73
2021/11/20 07:23:55;;;;;;;2.03;0.90;;;4.20;99.90;;;;;;4996323;28;20035;-73
2021/11/20 07:26:22;;;;;;;0.20;0.20;;;4.30;99.90;;;;;;4996482;28;20092;-73
2021/11/20 07:28:49;;;;;;;11.50;5.38;;;4.50;99.90;;;;;;4996126;28;20089;-73
2021/11/20 07:31:15;;;;;;;0.20;0.20;;;4.50;99.90;;;;;;4994588;28;20520;-73
2021/11/20 07:33:40;;;;;;;1.35;0.95;;;4.50;99.90;;;;;;4996066;28;20022;-74
2021/11/20 07:36:08;;;;;;;0.75;0.75;;;4.60;99.90;;;;;;4995651;28;20120;-73
2021/11/20 07:38:41;;;;;;;2.65;1.92;;;4.60;99.90;;;;;;4995950;28;20027;-73
2021/11/20 07:41:07;;;;;;;0.50;0.50;;;4.60;99.90;;;;;;4995819;28;20120;-73
2021/11/20 07:43:34;;;;;;;0.30;0.30;;;4.60;99.90;;;;;;4995823;28;20058;-73
2021/11/20 07:46:00;;;;;;;0.20;0.20;;;4.70;99.90;;;;;;4995767;28;20071;-73
2021/11/20 07:48:27;;;;;;;0.13;0.13;;;4.60;99.90;;;;;;4995726;28;20501;-73
2021/11/20 07:50:55;;;;;;;0.28;0.28;;;4.70;99.90;;;;;;4995543;28;20037;-73
2021/11/20 07:53:22;;;;;;;0.20;0.20;;;4.70;99.90;;;;;;4995496;28;20035;-73
2021/11/20 07:55:48;;;;;;;0.63;0.52;;;4.60;99.90;;;;;;4994190;28;20026;-73
2021/11/20 07:58:15;;;;;;;3.20;1.55;;;4.70;99.90;;;;;;4994230;28;20450;-73
2021/11/20 08:00:42;;;;;;;0.20;0.20;;;4.80;99.90;;;;;;4994071;28;20053;-73
2021/11/20 08:03:09;;;;;;;0.20;0.20;;;4.90;99.90;;;;;;4995498;28;20034;-73
2021/11/20 08:05:35;;;;;;;0.77;0.77;;;4.80;99.90;;;;;;5010511;28;20117;-73
2021/11/20 08:08:02;;;;;;;0.50;0.50;;;4.90;99.90;;;;;;4994140;28;20490;-73
2021/11/20 08:10:29;;;;;;;0.20;0.20;;;4.90;99.90;;;;;;4995151;28;20030;-73
2021/11/20 08:12:56;;;;;;;0.20;0.20;;;5.00;99.90;;;;;;4995326;28;20101;-73
2021/11/20 08:15:24;;;;;;;3.75;3.45;;;5.20;99.90;;;;;;4995259;28;20069;-73
2021/11/20 08:17:50;;;;;;;0.20;0.20;;;5.30;99.90;;;;;;4995031;28;20062;-73
2021/11/20 08:20:18;;;;;;;0.20;0.20;;;5.40;99.90;;;;;;4995177;28;20084;-73
2021/11/20 08:22:45;;;;;;;2.50;2.40;;;5.40;99.90;;;;;;4995108;28;20118;-73
2021/11/20 08:25:17;;;;;;;0.20;0.20;;;5.50;99.90;;;;;;4994373;28;20096;-73
2021/11/20 08:27:46;;;;;;;0.20;0.20;;;5.50;99.90;;;;;;4993767;28;20018;-73
2021/11/20 08:30:13;;;;;;;0.68;0.68;;;5.70;99.90;;;;;;4994074;28;20030;-73
2021/11/20 08:32:39;;;;;;;0.28;0.28;;;5.70;99.90;;;;;;4994807;28;20394;-73
2021/11/20 08:35:06;;;;;;;0.20;0.20;;;5.70;99.90;;;;;;4994841;28;20026;-73
2021/11/20 08:37:33;;;;;;;0.40;0.40;;;5.70;99.90;;;;;;4994825;28;20026;-73
2021/11/20 08:39:59;;;;;;;1.50;1.50;;;5.70;99.90;;;;;;4994600;28;20089;-74
2021/11/20 08:42:26;;;;;;;0.30;0.30;;;5.70;99.90;;;;;;4993428;28;20118;-73
2021/11/20 08:44:53;;;;;;;0.20;0.20;;;5.70;99.90;;;;;;4994636;28;20426;-73
2021/11/20 08:47:19;;;;;;;0.20;0.20;;;5.80;99.90;;;;;;4994669;28;20394;-73
2021/11/20 08:49:45;;;;;;;0.20;0.20;;;5.80;99.90;;;;;;4994529;28;20026;-73
2021/11/20 08:52:12;;;;;;;0.25;0.25;;;5.90;99.90;;;;;;4994437;28;20034;-73
2021/11/20 08:54:39;;;;;;;0.47;0.47;;;5.90;99.90;;;;;;4993365;28;20026;-73
2021/11/20 08:57:05;;;;;;;0.52;0.52;;;5.90;99.90;;;;;;4995159;28;20445;-73
2021/11/20 08:59:32;;;;;;;0.45;0.45;;;6.00;99.90;;;;;;4994405;28;20085;-73
2021/11/20 09:02:11;;;;;;;0.10;0.10;;;6.10;99.90;;;;;;4994315;28;20032;-73
2021/11/20 09:04:54;;;;;;;4.85;1.55;;;6.10;99.90;;;;;;4992576;28;20030;-73
2021/11/20 09:07:28;;;;;;;0.20;0.20;;;6.10;99.90;;;;;;4993645;28;20027;-73
2021/11/20 09:09:54;;;;;;;0.20;0.20;;;6.10;99.90;;;;;;4994122;28;20558;-73
2021/11/20 09:12:36;;;;;;;0.20;0.20;;;6.20;99.90;;;;;;4992860;28;20097;-73
2021/11/20 09:15:16;;;;;;;2.33;1.45;;;6.20;99.90;;;;;;4992765;28;20030;-73
2021/11/20 09:17:43;;;;;;;0.20;0.20;;;6.20;99.90;;;;;;4993364;28;20048;-73
2021/11/20 09:20:11;;;;;;;0.30;0.30;;;6.10;99.90;;;;;;4993812;28;20038;-73
2021/11/20 09:22:37;;;;;;;1.00;0.80;;;6.10;99.90;;;;;;4993943;28;20034;-73
2021/11/20 09:25:04;;;;;;;0.30;0.30;;;6.00;99.90;;;;;;4993844;28;20034;-73
2021/11/20 09:27:30;;;;;;;0.20;0.20;;;6.10;99.90;;;;;;4993958;28;20022;-73
2021/11/20 09:29:56;;;;;;;0.25;0.25;;;6.60;99.90;;;;;;4992390;28;20085;-73
2021/11/20 09:32:22;;;;;;;0.20;0.20;;;6.90;99.90;;;;;;4993667;28;20037;-73
2021/11/20 09:34:48;;;;;;;3.30;0.57;;;7.10;99.90;;;;;;4975877;28;20026;-73
2021/11/20 09:37:15;;;;;;;0.20;0.20;;;7.20;99.90;;;;;;4993721;28;20049;-73
2021/11/20 09:39:41;;;;;;;0.40;0.40;;;7.20;99.90;;;;;;4993629;28;20022;-73
2021/11/20 09:42:07;;;;;;;0.20;0.20;;;7.30;99.90;;;;;;4993623;28;20062;-73
2021/11/20 09:44:38;;;;;;;1.48;1.10;;;7.20;99.90;;;;;;4993507;28;20061;-73
2021/11/20 09:47:52;;;;;;;9.88;2.80;;;7.30;99.90;;;;;;4993353;28;20113;-73
2021/11/20 09:50:23;;;;;;;1.08;0.90;;;7.40;99.90;;;;;;4988420;28;20038;-73
2021/11/20 09:52:49;;;;;;;4.07;1.67;;;7.50;99.90;;;;;;4993495;28;20014;-73
2021/11/20 09:55:25;;;;;;;0.25;0.25;;;7.50;99.90;;;;;;4993322;28;20026;-73
2021/11/20 09:58:17;;;;;;;0.20;0.20;;;7.30;99.90;;;;;;4993501;28;20018;-73
2021/11/20 10:00:58;;;;;;;7.38;1.95;;;7.10;99.90;;;;;;4993226;28;20048;-73
2021/11/20 10:03:29;;;;;;;1.35;1.33;;;6.80;99.90;;;;;;4993250;28;20083;-73
2021/11/20 10:06:10;;;;;;;0.28;0.28;;;6.70;99.90;;;;;;4991832;28;20058;-73
2021/11/20 10:08:40;;;;;;;0.73;0.73;;;6.60;99.90;;;;;;4993201;28;20426;-73
2021/11/20 10:11:08;;;;;;;3.65;1.40;;;6.60;99.90;;;;;;4992948;28;20022;-73
2021/11/20 10:13:57;;;;;;;0.52;0.52;;;6.40;99.90;;;;;;4991700;28;20057;-73
2021/11/20 10:16:39;;;;;;;1.60;1.58;;;6.50;99.90;;;;;;4993014;28;20045;-73
2021/11/20 10:19:12;;;;;;;0.20;0.20;;;6.40;99.90;;;;;;4991826;28;20174;-73
2021/11/20 10:21:52;;;;;;;0.40;0.40;;;6.40;99.90;;;;;;4992875;28;20030;-73
2021/11/20 10:24:41;;;;;;;0.30;0.30;;;6.60;99.90;;;;;;4992891;28;20054;-73
2021/11/20 10:27:29;;;;;;;4.07;3.83;;;6.50;99.90;;;;;;4991561;28;20061;-73
2021/11/20 10:30:09;;;;;;;4.68;2.85;;;6.60;99.90;;;;;;4992575;28;20142;-73
2021/11/20 10:32:54;;;;;;;1.65;0.93;;;6.20;99.90;;;;;;4993146;28;20474;-73
2021/11/20 10:35:34;;;;;;;10.55;1.65;;;6.00;99.90;;;;;;4992563;28;20023;-73
2021/11/20 10:38:00;;;;;;;3.60;1.98;;;5.80;99.90;;;;;;4992613;28;20026;-73
2021/11/20 10:40:34;;;;;;;0.30;0.30;;;5.90;99.90;;;;;;4992495;28;20497;-73
2021/11/20 10:43:03;;;;;;;1.17;0.82;;;6.20;99.90;;;;;;4975018;28;20032;-73
2021/11/20 10:45:35;;;;;;;0.20;0.20;;;6.20;99.90;;;;;;4992453;28;20105;-73
2021/11/20 10:48:10;;;;;;;0.40;0.40;;;6.40;99.90;;;;;;4990705;28;20031;-73
2021/11/20 10:50:38;;;;;;;0.95;0.95;;;6.30;99.90;;;;;;4990874;28;20406;-73
2021/11/20 10:53:19;;;;;;;4.60;4.18;;;6.40;99.90;;;;;;4992657;28;20478;-73
2021/11/20 10:56:02;;;;;;;0.75;0.75;;;6.40;99.90;;;;;;4991342;28;20027;-73
2021/11/20 10:58:31;;;;;;;1.08;1.08;;;6.40;99.90;;;;;;4992463;28;20038;-73
2021/11/20 11:01:11;;;;;;;1.13;1.13;;;6.40;99.90;;;;;;4990920;28;20031;-73
2021/11/20 11:03:45;;;;;;;4.78;1.70;;;6.30;99.90;;;;;;4992381;28;20042;-73
2021/11/20 11:06:26;;;;;;;5.75;3.67;;;6.30;99.90;;;;;;4991578;28;20088;-73
2021/11/20 11:08:58;;;;;;;0.25;0.25;;;6.40;99.90;;;;;;4992397;28;20057;-73
2021/11/20 11:11:33;;;;;;;0.30;0.30;;;6.50;99.90;;;;;;4991233;28;20030;-73
2021/11/20 11:14:02;;;;;;;0.20;0.20;;;6.60;99.90;;;;;;4992436;28;20027;-73
2021/11/20 11:16:36;;;;;;;4.15;3.17;;;6.40;99.90;;;;;;4992131;28;20027;-73
2021/11/20 11:19:24;;;;;;;0.68;0.68;;;6.50;99.90;;;;;;4992338;28;20030;-75
2021/11/20 11:22:07;;;;;;;0.20;0.20;;;6.50;99.90;;;;;;4991938;28;20026;-73
2021/11/20 11:24:59;;;;;;;0.30;0.30;;;6.50;99.90;;;;;;5007407;28;20033;-73
2021/11/20 11:27:38;;;;;;;6.63;0.65;;;6.60;99.90;;;;;;4990922;28;20027;-73
2021/11/20 11:30:25;;;;;;;2.67;2.05;;;6.60;99.90;;;;;;4989679;28;20053;-72
2021/11/20 11:32:51;;;;;;;0.20;0.20;;;6.50;99.90;;;;;;4992350;28;20474;-72
2021/11/20 11:35:24;;;;;;;0.20;0.20;;;6.40;99.90;;;;;;4991005;28;20029;-72
2021/11/20 11:38:01;;;;;;;0.20;0.20;;;6.60;99.90;;;;;;4992271;28;20112;-73
2021/11/20 11:40:49;;;;;;;1.08;1.08;;;6.70;99.90;;;;;;4992015;28;20018;-73
2021/11/20 11:43:40;;;;;;;2.63;0.75;;;6.80;99.90;;;;;;4990967;28;20092;-73
2021/11/20 11:46:18;;;;;;;0.20;0.20;;;6.80;99.90;;;;;;4992227;28;20033;-73
2021/11/20 11:48:56;;;;;;;1.25;1.05;;;6.90;99.90;;;;;;4992497;28;20036;-74
2021/11/20 11:51:56;;;;;;;0.20;0.20;;;6.90;99.90;;;;;;4990523;28;20030;-72
2021/11/20 11:54:39;;;;;;;2.20;1.25;;;6.80;99.90;;;;;;4990866;28;20030;-72
2021/11/20 11:57:22;;;;;;;1.42;1.38;;;6.90;99.90;;;;;;4974530;28;20130;-72
2021/11/20 12:00:27;;;;;;;1.45;1.45;;;6.90;99.90;;;;;;4992365;28;20022;-73
2021/11/20 12:02:55;;;;;;;0.55;0.55;;;6.90;99.90;;;;;;4995485;28;20026;-72
2021/11/20 12:05:24;;;;;;;2.90;2.80;;;6.90;99.90;;;;;;4995661;28;20105;-73
2021/11/20 12:07:49;;;;;;;0.20;0.20;;;6.90;99.90;;;;;;4995493;28;20026;-73
2021/11/20 12:10:24;;;;;;;1.00;0.80;;;6.90;99.90;;;;;;4994484;28;20025;-73
2021/11/20 12:13:03;;;;;;;1.85;1.75;;;7.00;99.90;;;;;;4993811;28;20509;-72
2021/11/20 12:15:50;;;;;;;0.85;0.85;;;6.90;99.90;;;;;;4993215;28;20168;-72
2021/11/20 12:18:28;;;;;;;0.20;0.20;;;6.90;99.90;;;;;;5075642;23;20076;-74
2021/11/20 12:21:15;;;;;;;0.20;0.20;;;7.00;99.90;;;;;;5014801;28;20025;-74
2021/11/20 12:24:09;;;;;;;1.88;1.75;;;7.10;99.90;;;;;;4996667;28;20056;-74
2021/11/20 12:26:41;;;;;;;0.40;0.40;;;7.00;99.90;;;;;;5014380;28;20034;-74
2021/11/20 12:29:16;;;;;;;0.50;0.50;;;7.10;99.90;;;;;;5014468;28;20084;-74
2021/11/20 12:32:06;;;;;;;0.63;0.63;;;7.10;99.90;;;;;;4996165;28;20034;-74
2021/11/20 12:35:00;;;;;;;0.17;0.17;;;7.10;99.90;;;;;;5013981;28;20377;-74
2021/11/20 12:37:48;;;;;;;0.40;0.40;;;7.10;99.90;;;;;;5014461;28;20030;-74
2021/11/20 12:40:33;;;;;;;0.20;0.20;;;7.10;99.90;;;;;;4996590;28;20025;-74
2021/11/20 12:43:21;;;;;;;0.50;0.50;;;6.90;99.90;;;;;;4996715;28;20482;-74
2021/11/20 12:46:12;;;;;;;0.20;0.20;;;6.80;99.90;;;;;;5014074;28;20148;-74
2021/11/20 12:49:05;;;;;;;0.20;0.20;;;6.80;99.90;;;;;;5014116;28;20054;-74
2021/11/20 12:51:31;;;;;;;0.20;0.20;;;6.80;99.90;;;;;;5013953;28;20026;-74
2021/11/20 12:54:18;;;;;;;2.88;0.95;;;6.90;99.90;;;;;;4996529;28;20353;-74
2021/11/20 12:56:44;;;;;;;0.20;0.20;;;7.00;99.90;;;;;;4996268;28;20021;-74
2021/11/20 12:59:23;;;;;;;0.38;0.38;;;7.10;99.90;;;;;;4995920;28;20062;-74
2021/11/20 13:02:04;;;;;;;0.70;0.70;;;7.20;99.90;;;;;;4980071;28;20401;-74
2021/11/20 13:04:46;;;;;;;0.20;0.20;;;7.20;99.90;;;;;;4980174;28;20037;-74
2021/11/20 13:07:25;;;;;;;6.85;2.20;;;7.40;99.90;;;;;;4996242;28;20026;-74
2021/11/20 13:09:56;;;;;;;9.10;2.15;;;7.50;99.90;;;;;;4995942;28;20543;-74
2021/11/20 13:12:32;;;;;;;0.30;0.30;;;7.30;99.90;;;;;;4996124;28;20025;-74
2021/11/20 13:15:19;;;;;;;0.20;0.20;;;7.40;99.90;;;;;;5013728;28;20385;-74
2021/11/20 13:17:53;;;;;;;6.65;3.80;;;7.50;99.90;;;;;;4995927;28;20041;-74
2021/11/20 13:20:31;;;;;;;0.50;0.50;;;7.70;99.90;;;;;;5013908;28;20054;-75